BOX50 EDDF-LTFM
Flight info
| Callsign | BOX50 |
|---|---|
| Flight time | 2h 29m |
| Altitude | 31000 |
| Route | CINDY8S CINDY Z74 HAREM DCT ASLEP DCT TAKUT DCT DINKU L603 BESNI/N0476F350 L605 MIQ DCT ALUTU DCT BIBAG L605 ESEGA DCT VELOM DCT GOTAR DCT BABIT DCT ESIRI DCT ETIDA T390 RILEX |
| Aircraft | B77L/H-SDE1E2E3FGHIJ2J3J4J5M1RWXY/LB1D1 |
Departure
| Time | 2026-05-05 12:22 |
|---|---|
| Airport | Frankfurt Main Airport (EDDF) |
Arrival
| Time | 2026-05-05 14:52 |
|---|---|
| Airport | İstanbul Airport (LTFM) |
| Time | Latitude | Longitude | Altitude | Speed | Heading |
|---|---|---|---|---|---|
| 2026-05-05 11:51 | 50.03962 | 8.54375 | 361 ft | 0 kts | 69° |
| 2026-05-05 12:12 | 50.03956 | 8.54348 | 362 ft | 4 kts | 71° |
| 2026-05-05 12:12 | 50.03949 | 8.54309 | 356 ft | 4 kts | 79° |
| 2026-05-05 12:13 | 50.03947 | 8.54268 | 353 ft | 4 kts | 108° |
| 2026-05-05 12:13 | 50.03957 | 8.54246 | 360 ft | 2 kts | 160° |
| 2026-05-05 12:13 | 50.03934 | 8.54259 | 361 ft | 4 kts | 160° |
| 2026-05-05 12:13 | 50.03923 | 8.54265 | 356 ft | 0 kts | 159° |
| 2026-05-05 12:17 | 50.03915 | 8.54270 | 356 ft | 4 kts | 159° |
| 2026-05-05 12:17 | 50.03886 | 8.54287 | 358 ft | 6 kts | 159° |
| 2026-05-05 12:17 | 50.03842 | 8.54295 | 350 ft | 8 kts | 200° |
| 2026-05-05 12:17 | 50.03793 | 8.54196 | 358 ft | 17 kts | 249° |
| 2026-05-05 12:18 | 50.03750 | 8.54015 | 358 ft | 16 kts | 250° |
| 2026-05-05 12:18 | 50.03710 | 8.53848 | 352 ft | 16 kts | 249° |
| 2026-05-05 12:18 | 50.03671 | 8.53683 | 354 ft | 16 kts | 249° |
| 2026-05-05 12:18 | 50.03634 | 8.53541 | 351 ft | 12 kts | 249° |
| 2026-05-05 12:19 | 50.03607 | 8.53428 | 354 ft | 12 kts | 249° |
| 2026-05-05 12:19 | 50.03578 | 8.53310 | 355 ft | 12 kts | 249° |
| 2026-05-05 12:19 | 50.03556 | 8.53220 | 347 ft | 0 kts | 249° |
| 2026-05-05 12:19 | 50.03549 | 8.53193 | 353 ft | 7 kts | 250° |
| 2026-05-05 12:20 | 50.03519 | 8.53060 | 351 ft | 19 kts | 250° |
| 2026-05-05 12:20 | 50.03467 | 8.52857 | 337 ft | 20 kts | 247° |
| 2026-05-05 12:20 | 50.03413 | 8.52656 | 336 ft | 20 kts | 242° |
| 2026-05-05 12:20 | 50.03322 | 8.52596 | 338 ft | 0 kts | 179° |
| 2026-05-05 12:21 | 50.03293 | 8.52597 | 336 ft | 25 kts | 179° |
| 2026-05-05 12:22 | 50.02863 | 8.52599 | 337 ft | 96 kts | 179° |
| 2026-05-05 12:22 | 50.01989 | 8.52609 | 337 ft | 153 kts | 179° |
| 2026-05-05 12:22 | 50.00783 | 8.52623 | 461 ft | 183 kts | 179° |
| 2026-05-05 12:22 | 49.99517 | 8.52640 | 1006 ft | 184 kts | 179° |
| 2026-05-05 12:23 | 49.98233 | 8.52623 | 1594 ft | 184 kts | 181° |
| 2026-05-05 12:23 | 49.96966 | 8.52852 | 2055 ft | 190 kts | 154° |
| 2026-05-05 12:23 | 49.96017 | 8.54325 | 2227 ft | 207 kts | 119° |
| 2026-05-05 12:23 | 49.95310 | 8.56346 | 2649 ft | 217 kts | 119° |
| 2026-05-05 12:24 | 49.94557 | 8.58428 | 3208 ft | 223 kts | 119° |
| 2026-05-05 12:24 | 49.94006 | 8.60695 | 3669 ft | 233 kts | 96° |
| 2026-05-05 12:24 | 49.93925 | 8.63310 | 3956 ft | 250 kts | 92° |
| 2026-05-05 12:24 | 49.93839 | 8.66051 | 4593 ft | 258 kts | 93° |
| 2026-05-05 12:25 | 49.93581 | 8.68814 | 5205 ft | 262 kts | 113° |
| 2026-05-05 12:25 | 49.92465 | 8.71033 | 5852 ft | 263 kts | 143° |
| 2026-05-05 12:25 | 49.90955 | 8.72673 | 6487 ft | 267 kts | 145° |
| 2026-05-05 12:25 | 49.89423 | 8.74347 | 7207 ft | 270 kts | 144° |
| 2026-05-05 12:26 | 49.88084 | 8.76254 | 7770 ft | 272 kts | 123° |
| 2026-05-05 12:26 | 49.87171 | 8.78830 | 8335 ft | 275 kts | 117° |
| 2026-05-05 12:26 | 49.86259 | 8.81465 | 9036 ft | 277 kts | 118° |
| 2026-05-05 12:26 | 49.85321 | 8.84091 | 9746 ft | 279 kts | 119° |
| 2026-05-05 12:27 | 49.84368 | 8.86733 | 10374 ft | 285 kts | 119° |
| 2026-05-05 12:27 | 49.83363 | 8.89507 | 10610 ft | 307 kts | 119° |
| 2026-05-05 12:27 | 49.82276 | 8.92503 | 10812 ft | 330 kts | 119° |
| 2026-05-05 12:27 | 49.81110 | 8.95711 | 11012 ft | 353 kts | 119° |
| 2026-05-05 12:28 | 49.79882 | 8.99089 | 11587 ft | 364 kts | 119° |
| 2026-05-05 12:28 | 49.78628 | 9.02531 | 12318 ft | 371 kts | 119° |
| 2026-05-05 12:28 | 49.77348 | 9.06038 | 13156 ft | 375 kts | 119° |
| 2026-05-05 12:28 | 49.76107 | 9.09595 | 13950 ft | 376 kts | 114° |
| 2026-05-05 12:29 | 49.75302 | 9.13477 | 14550 ft | 384 kts | 103° |
| 2026-05-05 12:29 | 49.74689 | 9.17470 | 15283 ft | 387 kts | 106° |
| 2026-05-05 12:29 | 49.73601 | 9.21280 | 15994 ft | 391 kts | 125° |
| 2026-05-05 12:29 | 49.71793 | 9.24436 | 16742 ft | 394 kts | 135° |
| 2026-05-05 12:30 | 49.70484 | 9.26476 | 17217 ft | 396 kts | 134° |
| 2026-05-05 12:30 | 49.68580 | 9.29576 | 17901 ft | 401 kts | 132° |
| 2026-05-05 12:30 | 49.66701 | 9.32800 | 18531 ft | 406 kts | 131° |
| 2026-05-05 12:30 | 49.64847 | 9.36046 | 19202 ft | 410 kts | 131° |
| 2026-05-05 12:31 | 49.63063 | 9.39486 | 19836 ft | 413 kts | 124° |
| 2026-05-05 12:31 | 49.61574 | 9.43377 | 20460 ft | 417 kts | 117° |
| 2026-05-05 12:31 | 49.60421 | 9.47445 | 21058 ft | 421 kts | 109° |
| 2026-05-05 12:31 | 49.59503 | 9.51750 | 21659 ft | 424 kts | 108° |
| 2026-05-05 12:32 | 49.58605 | 9.56110 | 22209 ft | 428 kts | 108° |
| 2026-05-05 12:32 | 49.57691 | 9.60521 | 22792 ft | 432 kts | 108° |
| 2026-05-05 12:32 | 49.56760 | 9.64938 | 23355 ft | 435 kts | 108° |
| 2026-05-05 12:32 | 49.55807 | 9.69397 | 23901 ft | 439 kts | 108° |
| 2026-05-05 12:33 | 49.54841 | 9.73877 | 24446 ft | 442 kts | 108° |
| 2026-05-05 12:33 | 49.53834 | 9.78374 | 24937 ft | 445 kts | 111° |
| 2026-05-05 12:33 | 49.52528 | 9.82709 | 25413 ft | 449 kts | 118° |
| 2026-05-05 12:33 | 49.50910 | 9.86851 | 25883 ft | 453 kts | 124° |
| 2026-05-05 12:34 | 49.49007 | 9.90720 | 26367 ft | 455 kts | 129° |
| 2026-05-05 12:34 | 49.46986 | 9.94484 | 26836 ft | 458 kts | 129° |
| 2026-05-05 12:34 | 49.44933 | 9.98289 | 27270 ft | 462 kts | 129° |
| 2026-05-05 12:34 | 49.42973 | 10.01947 | 27677 ft | 465 kts | 129° |
| 2026-05-05 12:35 | 49.40947 | 10.05766 | 28090 ft | 468 kts | 129° |
| 2026-05-05 12:35 | 49.38888 | 10.09659 | 28488 ft | 471 kts | 129° |
| 2026-05-05 12:35 | 49.36813 | 10.13579 | 28886 ft | 474 kts | 129° |
| 2026-05-05 12:35 | 49.34722 | 10.17509 | 29260 ft | 476 kts | 129° |
| 2026-05-05 12:36 | 49.32619 | 10.21449 | 29626 ft | 478 kts | 129° |
| 2026-05-05 12:36 | 49.30504 | 10.25406 | 29959 ft | 481 kts | 129° |
| 2026-05-05 12:36 | 49.28384 | 10.29372 | 30378 ft | 481 kts | 129° |
| 2026-05-05 12:36 | 49.26260 | 10.33337 | 30831 ft | 479 kts | 129° |
| 2026-05-05 12:37 | 49.24169 | 10.37229 | 31296 ft | 477 kts | 130° |
| 2026-05-05 12:37 | 49.21925 | 10.40963 | 31720 ft | 476 kts | 135° |
| 2026-05-05 12:37 | 49.19534 | 10.44471 | 32133 ft | 476 kts | 136° |
| 2026-05-05 12:37 | 49.17131 | 10.47968 | 32508 ft | 475 kts | 136° |
| 2026-05-05 12:38 | 49.14749 | 10.51478 | 32903 ft | 474 kts | 136° |
| 2026-05-05 12:38 | 49.12403 | 10.54964 | 33268 ft | 473 kts | 136° |
| 2026-05-05 12:38 | 49.10051 | 10.58463 | 33619 ft | 472 kts | 136° |
| 2026-05-05 12:38 | 49.07723 | 10.61917 | 33964 ft | 472 kts | 136° |
| 2026-05-05 12:39 | 49.05369 | 10.65401 | 34282 ft | 471 kts | 136° |
| 2026-05-05 12:39 | 49.03008 | 10.68879 | 34599 ft | 471 kts | 136° |
| 2026-05-05 12:39 | 49.00654 | 10.72332 | 34889 ft | 471 kts | 136° |
| 2026-05-05 12:39 | 48.98283 | 10.75803 | 34960 ft | 475 kts | 136° |
| 2026-05-05 12:40 | 48.93516 | 10.82774 | 34983 ft | 473 kts | 136° |
| 2026-05-05 12:40 | 48.88811 | 10.89657 | 35001 ft | 468 kts | 136° |
| 2026-05-05 12:41 | 48.84147 | 10.96492 | 35003 ft | 467 kts | 136° |
| 2026-05-05 12:41 | 48.79579 | 11.03169 | 35004 ft | 468 kts | 136° |
| 2026-05-05 12:42 | 48.74887 | 11.09998 | 35004 ft | 468 kts | 136° |
| 2026-05-05 12:42 | 48.70175 | 11.16838 | 35003 ft | 468 kts | 136° |
| 2026-05-05 12:43 | 48.65739 | 11.23962 | 35007 ft | 468 kts | 125° |
| 2026-05-05 12:43 | 48.62688 | 11.32626 | 35004 ft | 468 kts | 109° |
| 2026-05-05 12:44 | 48.60761 | 11.41971 | 35003 ft | 469 kts | 107° |
| 2026-05-05 12:44 | 48.58814 | 11.51395 | 35001 ft | 470 kts | 108° |
| 2026-05-05 12:45 | 48.56839 | 11.60755 | 34997 ft | 470 kts | 105° |
| 2026-05-05 12:45 | 48.55406 | 11.70382 | 34999 ft | 470 kts | 102° |
| 2026-05-05 12:46 | 48.54047 | 11.80049 | 35000 ft | 470 kts | 102° |
| 2026-05-05 12:46 | 48.52647 | 11.89708 | 35003 ft | 471 kts | 102° |
| 2026-05-05 12:47 | 48.51226 | 11.99334 | 34995 ft | 471 kts | 102° |
| 2026-05-05 12:47 | 48.49831 | 12.08745 | 34998 ft | 470 kts | 102° |
| 2026-05-05 12:48 | 48.48397 | 12.18311 | 35002 ft | 470 kts | 103° |
| 2026-05-05 12:48 | 48.46941 | 12.27921 | 35006 ft | 470 kts | 103° |
| 2026-05-05 12:49 | 48.45479 | 12.37527 | 34998 ft | 470 kts | 103° |
| 2026-05-05 12:49 | 48.44281 | 12.45363 | 35004 ft | 470 kts | 103° |
| 2026-05-05 12:50 | 48.42809 | 12.54945 | 35001 ft | 469 kts | 103° |
| 2026-05-05 12:50 | 48.41328 | 12.64533 | 35006 ft | 469 kts | 103° |
| 2026-05-05 12:51 | 48.39831 | 12.74120 | 35004 ft | 469 kts | 104° |
| 2026-05-05 12:51 | 48.37818 | 12.83390 | 35013 ft | 469 kts | 110° |
| 2026-05-05 12:52 | 48.35605 | 12.92630 | 34999 ft | 469 kts | 110° |
| 2026-05-05 12:52 | 48.33473 | 13.01643 | 34999 ft | 469 kts | 109° |
| 2026-05-05 12:53 | 48.31296 | 13.10912 | 35000 ft | 470 kts | 109° |
| 2026-05-05 12:53 | 48.29129 | 13.20094 | 35003 ft | 469 kts | 109° |
| 2026-05-05 12:54 | 48.25865 | 13.33980 | 35001 ft | 469 kts | 109° |
| 2026-05-05 12:55 | 48.23683 | 13.43225 | 35004 ft | 469 kts | 109° |
| 2026-05-05 12:55 | 48.21135 | 13.52220 | 35003 ft | 469 kts | 119° |
| 2026-05-05 12:56 | 48.17682 | 13.60440 | 35002 ft | 469 kts | 123° |
| 2026-05-05 12:56 | 48.14101 | 13.68637 | 35007 ft | 470 kts | 123° |
| 2026-05-05 12:57 | 48.10531 | 13.76859 | 35003 ft | 470 kts | 123° |
| 2026-05-05 12:57 | 48.06999 | 13.85029 | 35004 ft | 470 kts | 123° |
| 2026-05-05 12:58 | 48.03445 | 13.93246 | 35003 ft | 470 kts | 123° |
| 2026-05-05 12:58 | 47.99983 | 14.01225 | 34999 ft | 470 kts | 123° |
| 2026-05-05 12:59 | 47.96417 | 14.09418 | 34996 ft | 470 kts | 123° |
| 2026-05-05 12:59 | 47.92873 | 14.17533 | 34986 ft | 470 kts | 123° |
| 2026-05-05 13:00 | 47.87508 | 14.29774 | 35000 ft | 470 kts | 123° |
| 2026-05-05 13:01 | 47.80337 | 14.46049 | 35008 ft | 471 kts | 123° |
| 2026-05-05 13:01 | 47.76727 | 14.54203 | 35003 ft | 472 kts | 123° |
| 2026-05-05 13:02 | 47.73102 | 14.62371 | 35012 ft | 473 kts | 123° |
| 2026-05-05 13:02 | 47.69492 | 14.70479 | 35003 ft | 473 kts | 123° |
| 2026-05-05 13:03 | 47.65851 | 14.78631 | 35009 ft | 472 kts | 123° |
| 2026-05-05 13:03 | 47.62210 | 14.86760 | 35004 ft | 473 kts | 123° |
| 2026-05-05 13:04 | 47.58562 | 14.94882 | 35004 ft | 474 kts | 123° |
| 2026-05-05 13:04 | 47.54999 | 15.02788 | 35012 ft | 476 kts | 123° |
| 2026-05-05 13:05 | 47.51330 | 15.10908 | 34819 ft | 473 kts | 124° |
| 2026-05-05 13:05 | 47.49506 | 15.14938 | 34513 ft | 477 kts | 124° |
| 2026-05-05 13:05 | 47.47649 | 15.19031 | 34410 ft | 478 kts | 124° |
| 2026-05-05 13:06 | 47.43943 | 15.27185 | 34329 ft | 477 kts | 124° |
| 2026-05-05 13:06 | 47.40240 | 15.35307 | 34221 ft | 477 kts | 124° |
| 2026-05-05 13:07 | 47.38385 | 15.39367 | 34070 ft | 476 kts | 124° |
| 2026-05-05 13:07 | 47.36539 | 15.43400 | 34015 ft | 474 kts | 124° |
| 2026-05-05 13:07 | 47.32856 | 15.51433 | 34008 ft | 478 kts | 124° |
| 2026-05-05 13:08 | 47.29139 | 15.59513 | 34007 ft | 478 kts | 124° |
| 2026-05-05 13:08 | 47.25404 | 15.67610 | 34002 ft | 477 kts | 124° |
| 2026-05-05 13:09 | 47.21667 | 15.75688 | 33997 ft | 475 kts | 124° |
| 2026-05-05 13:09 | 47.17952 | 15.83696 | 33978 ft | 471 kts | 124° |
| 2026-05-05 13:10 | 47.16104 | 15.87671 | 33789 ft | 470 kts | 124° |
| 2026-05-05 13:10 | 47.14272 | 15.91605 | 33460 ft | 471 kts | 124° |
| 2026-05-05 13:10 | 47.12425 | 15.95566 | 33102 ft | 473 kts | 124° |
| 2026-05-05 13:10 | 47.10567 | 15.99545 | 33008 ft | 471 kts | 124° |
| 2026-05-05 13:11 | 47.06974 | 16.07226 | 33002 ft | 473 kts | 124° |
| 2026-05-05 13:11 | 47.03232 | 16.15203 | 33001 ft | 474 kts | 124° |
| 2026-05-05 13:12 | 46.99534 | 16.23162 | 33001 ft | 474 kts | 122° |
| 2026-05-05 13:12 | 46.96307 | 16.31587 | 33009 ft | 474 kts | 118° |
| 2026-05-05 13:13 | 46.93151 | 16.40076 | 33000 ft | 474 kts | 118° |
| 2026-05-05 13:13 | 46.89997 | 16.48489 | 33039 ft | 476 kts | 119° |
| 2026-05-05 13:14 | 46.88395 | 16.52731 | 33338 ft | 476 kts | 119° |
| 2026-05-05 13:14 | 46.86789 | 16.56967 | 33781 ft | 473 kts | 119° |
| 2026-05-05 13:14 | 46.85199 | 16.61149 | 34237 ft | 470 kts | 119° |
| 2026-05-05 13:14 | 46.83611 | 16.65319 | 34632 ft | 468 kts | 119° |
| 2026-05-05 13:15 | 46.82029 | 16.69467 | 34968 ft | 467 kts | 119° |
| 2026-05-05 13:15 | 46.80447 | 16.73607 | 35281 ft | 466 kts | 119° |
| 2026-05-05 13:15 | 46.78870 | 16.77731 | 35562 ft | 466 kts | 119° |
| 2026-05-05 13:15 | 46.77290 | 16.81857 | 35852 ft | 465 kts | 119° |
| 2026-05-05 13:16 | 46.74124 | 16.90103 | 35996 ft | 470 kts | 119° |
| 2026-05-05 13:16 | 46.71452 | 16.97044 | 35983 ft | 466 kts | 119° |
| 2026-05-05 13:17 | 46.68364 | 17.05045 | 36001 ft | 462 kts | 119° |
| 2026-05-05 13:17 | 46.65230 | 17.13141 | 36000 ft | 462 kts | 119° |
| 2026-05-05 13:18 | 46.62067 | 17.21286 | 36002 ft | 462 kts | 119° |
| 2026-05-05 13:18 | 46.58895 | 17.29428 | 36002 ft | 462 kts | 120° |
| 2026-05-05 13:19 | 46.55716 | 17.37569 | 36002 ft | 463 kts | 120° |
| 2026-05-05 13:19 | 46.52578 | 17.45578 | 35977 ft | 448 kts | 120° |
| 2026-05-05 13:20 | 46.49539 | 17.53311 | 35998 ft | 438 kts | 120° |
| 2026-05-05 13:20 | 46.46507 | 17.61004 | 36015 ft | 446 kts | 120° |
| 2026-05-05 13:21 | 46.43424 | 17.68806 | 36008 ft | 449 kts | 120° |
| 2026-05-05 13:21 | 46.40307 | 17.76672 | 36000 ft | 449 kts | 120° |
| 2026-05-05 13:22 | 46.37194 | 17.84507 | 35998 ft | 448 kts | 120° |
| 2026-05-05 13:22 | 46.34072 | 17.92338 | 35998 ft | 447 kts | 120° |
| 2026-05-05 13:23 | 46.31004 | 18.00014 | 36001 ft | 445 kts | 120° |
| 2026-05-05 13:23 | 46.27977 | 18.07568 | 35997 ft | 444 kts | 120° |
| 2026-05-05 13:24 | 46.24870 | 18.15299 | 36001 ft | 444 kts | 120° |
| 2026-05-05 13:24 | 46.21784 | 18.22956 | 36001 ft | 443 kts | 120° |
| 2026-05-05 13:25 | 46.18671 | 18.30658 | 36002 ft | 444 kts | 120° |
| 2026-05-05 13:25 | 46.15545 | 18.38370 | 36007 ft | 445 kts | 120° |
| 2026-05-05 13:26 | 46.12413 | 18.46077 | 36008 ft | 446 kts | 120° |
| 2026-05-05 13:26 | 46.09267 | 18.53797 | 36002 ft | 446 kts | 120° |
| 2026-05-05 13:27 | 46.06137 | 18.61456 | 36000 ft | 447 kts | 120° |
| 2026-05-05 13:27 | 46.02979 | 18.69163 | 36003 ft | 447 kts | 120° |
| 2026-05-05 13:28 | 45.99858 | 18.76760 | 36000 ft | 446 kts | 121° |
| 2026-05-05 13:28 | 45.96700 | 18.84427 | 36001 ft | 445 kts | 121° |
| 2026-05-05 13:29 | 45.93503 | 18.92049 | 36000 ft | 445 kts | 124° |
| 2026-05-05 13:29 | 45.89640 | 18.98953 | 35713 ft | 446 kts | 131° |
| 2026-05-05 13:30 | 45.87653 | 19.02178 | 35188 ft | 454 kts | 131° |
| 2026-05-05 13:30 | 45.85540 | 19.05594 | 34647 ft | 462 kts | 131° |
| 2026-05-05 13:30 | 45.83397 | 19.09062 | 34156 ft | 467 kts | 131° |
| 2026-05-05 13:30 | 45.81232 | 19.12578 | 33732 ft | 470 kts | 131° |
| 2026-05-05 13:31 | 45.79065 | 19.16108 | 33369 ft | 471 kts | 131° |
| 2026-05-05 13:31 | 45.76935 | 19.19585 | 33071 ft | 471 kts | 131° |
| 2026-05-05 13:31 | 45.72621 | 19.26626 | 33012 ft | 469 kts | 131° |
| 2026-05-05 13:32 | 45.68283 | 19.33693 | 33006 ft | 473 kts | 131° |
| 2026-05-05 13:32 | 45.63951 | 19.40729 | 33001 ft | 475 kts | 131° |
| 2026-05-05 13:33 | 45.59580 | 19.47810 | 33000 ft | 475 kts | 131° |
| 2026-05-05 13:33 | 45.55206 | 19.54877 | 33000 ft | 474 kts | 131° |
| 2026-05-05 13:34 | 45.50835 | 19.61921 | 33000 ft | 473 kts | 131° |
| 2026-05-05 13:34 | 45.46465 | 19.68946 | 33001 ft | 472 kts | 131° |
| 2026-05-05 13:35 | 45.42130 | 19.75896 | 33000 ft | 472 kts | 131° |
| 2026-05-05 13:35 | 45.37763 | 19.82881 | 33001 ft | 471 kts | 131° |
| 2026-05-05 13:36 | 45.33394 | 19.89852 | 33001 ft | 471 kts | 131° |
| 2026-05-05 13:36 | 45.29028 | 19.96799 | 33001 ft | 471 kts | 131° |
| 2026-05-05 13:37 | 45.24756 | 20.03581 | 33002 ft | 472 kts | 131° |
| 2026-05-05 13:37 | 45.20396 | 20.10485 | 33002 ft | 472 kts | 132° |
| 2026-05-05 13:38 | 45.16007 | 20.17418 | 33000 ft | 472 kts | 132° |
| 2026-05-05 13:38 | 45.11609 | 20.24348 | 33003 ft | 473 kts | 132° |
| 2026-05-05 13:39 | 45.07209 | 20.31264 | 33001 ft | 473 kts | 132° |
| 2026-05-05 13:39 | 45.02793 | 20.38187 | 33002 ft | 473 kts | 132° |
| 2026-05-05 13:40 | 44.98397 | 20.45062 | 33001 ft | 473 kts | 132° |
| 2026-05-05 13:40 | 44.94012 | 20.51903 | 33001 ft | 472 kts | 132° |
| 2026-05-05 13:41 | 44.89594 | 20.58778 | 33001 ft | 472 kts | 132° |
| 2026-05-05 13:41 | 44.85214 | 20.65578 | 33000 ft | 472 kts | 132° |
| 2026-05-05 13:42 | 44.80814 | 20.72392 | 33002 ft | 472 kts | 132° |
| 2026-05-05 13:42 | 44.76360 | 20.79273 | 33002 ft | 472 kts | 132° |
| 2026-05-05 13:43 | 44.71960 | 20.86053 | 33002 ft | 472 kts | 132° |
| 2026-05-05 13:43 | 44.67532 | 20.92860 | 33001 ft | 472 kts | 132° |
| 2026-05-05 13:44 | 44.63109 | 20.99644 | 33002 ft | 472 kts | 132° |
| 2026-05-05 13:44 | 44.58777 | 21.06271 | 33001 ft | 472 kts | 132° |
| 2026-05-05 13:45 | 44.54415 | 21.12930 | 33002 ft | 472 kts | 133° |
| 2026-05-05 13:45 | 44.49963 | 21.19709 | 33002 ft | 472 kts | 133° |
| 2026-05-05 13:46 | 44.45506 | 21.26479 | 33001 ft | 472 kts | 133° |
| 2026-05-05 13:46 | 44.41042 | 21.33244 | 33000 ft | 473 kts | 133° |
| 2026-05-05 13:47 | 44.36574 | 21.40002 | 33001 ft | 473 kts | 133° |
| 2026-05-05 13:47 | 44.32103 | 21.46745 | 33001 ft | 473 kts | 133° |
| 2026-05-05 13:48 | 44.27635 | 21.53517 | 32999 ft | 473 kts | 133° |
| 2026-05-05 13:48 | 44.23201 | 21.60250 | 33003 ft | 474 kts | 133° |
| 2026-05-05 13:49 | 44.18731 | 21.67022 | 32998 ft | 475 kts | 133° |
| 2026-05-05 13:49 | 44.14241 | 21.73801 | 33001 ft | 477 kts | 133° |
| 2026-05-05 13:50 | 44.09735 | 21.80587 | 33005 ft | 479 kts | 133° |
| 2026-05-05 13:50 | 44.05221 | 21.87368 | 33007 ft | 480 kts | 133° |
| 2026-05-05 13:51 | 44.00672 | 21.94187 | 33004 ft | 480 kts | 133° |
| 2026-05-05 13:51 | 43.96255 | 22.00791 | 33002 ft | 478 kts | 133° |
| 2026-05-05 13:52 | 43.91731 | 22.07539 | 32998 ft | 474 kts | 133° |
| 2026-05-05 13:52 | 43.87273 | 22.14173 | 32996 ft | 472 kts | 133° |
| 2026-05-05 13:53 | 43.82797 | 22.20819 | 33001 ft | 471 kts | 133° |
| 2026-05-05 13:53 | 43.78325 | 22.27443 | 33001 ft | 471 kts | 133° |
| 2026-05-05 13:54 | 43.73830 | 22.34089 | 33001 ft | 472 kts | 133° |
| 2026-05-05 13:54 | 43.69464 | 22.40881 | 32999 ft | 474 kts | 127° |
| 2026-05-05 13:55 | 43.66002 | 22.48583 | 33006 ft | 476 kts | 117° |
| 2026-05-05 13:55 | 43.63026 | 22.56808 | 33005 ft | 478 kts | 116° |
| 2026-05-05 13:56 | 43.60053 | 22.65028 | 33003 ft | 479 kts | 116° |
| 2026-05-05 13:56 | 43.57048 | 22.73227 | 32999 ft | 477 kts | 117° |
| 2026-05-05 13:57 | 43.54056 | 22.81319 | 32998 ft | 475 kts | 117° |
| 2026-05-05 13:57 | 43.51051 | 22.89413 | 32998 ft | 474 kts | 117° |
| 2026-05-05 13:58 | 43.48042 | 22.97499 | 33003 ft | 474 kts | 117° |
| 2026-05-05 13:58 | 43.45093 | 23.05402 | 33002 ft | 474 kts | 117° |
| 2026-05-05 13:59 | 43.40559 | 23.17512 | 33002 ft | 474 kts | 117° |
| 2026-05-05 14:00 | 43.36527 | 23.28235 | 32999 ft | 474 kts | 117° |
| 2026-05-05 14:00 | 43.33000 | 23.37583 | 33001 ft | 473 kts | 117° |
| 2026-05-05 14:01 | 43.30477 | 23.44253 | 33000 ft | 473 kts | 117° |
| 2026-05-05 14:01 | 43.27430 | 23.52283 | 33000 ft | 473 kts | 117° |
| 2026-05-05 14:02 | 43.23895 | 23.61574 | 32998 ft | 473 kts | 117° |
| 2026-05-05 14:02 | 43.21332 | 23.68291 | 33002 ft | 474 kts | 117° |
| 2026-05-05 14:03 | 43.18262 | 23.76314 | 33002 ft | 475 kts | 117° |
| 2026-05-05 14:03 | 43.15207 | 23.84276 | 33001 ft | 475 kts | 117° |
| 2026-05-05 14:04 | 43.12120 | 23.92301 | 33000 ft | 475 kts | 118° |
| 2026-05-05 14:04 | 43.09087 | 24.00161 | 32998 ft | 474 kts | 118° |
| 2026-05-05 14:05 | 43.06055 | 24.07997 | 33002 ft | 474 kts | 118° |
| 2026-05-05 14:05 | 43.02958 | 24.15980 | 33000 ft | 474 kts | 118° |
| 2026-05-05 14:06 | 42.99872 | 24.23914 | 33000 ft | 475 kts | 118° |
| 2026-05-05 14:06 | 42.96761 | 24.31888 | 33001 ft | 476 kts | 118° |
| 2026-05-05 14:07 | 42.93636 | 24.39876 | 33004 ft | 477 kts | 118° |
| 2026-05-05 14:07 | 42.90520 | 24.47820 | 32998 ft | 478 kts | 118° |
| 2026-05-05 14:08 | 42.87368 | 24.55838 | 33007 ft | 479 kts | 118° |
| 2026-05-05 14:08 | 42.84212 | 24.63841 | 33004 ft | 479 kts | 118° |
| 2026-05-05 14:09 | 42.81046 | 24.71843 | 32996 ft | 479 kts | 118° |
| 2026-05-05 14:09 | 42.77879 | 24.79830 | 33001 ft | 478 kts | 118° |
| 2026-05-05 14:10 | 42.74735 | 24.87744 | 32982 ft | 479 kts | 118° |
| 2026-05-05 14:10 | 42.71547 | 24.95745 | 33004 ft | 484 kts | 118° |
| 2026-05-05 14:11 | 42.68403 | 25.03614 | 33008 ft | 483 kts | 118° |
| 2026-05-05 14:11 | 42.65222 | 25.11556 | 33003 ft | 473 kts | 118° |
| 2026-05-05 14:12 | 42.62110 | 25.19301 | 32996 ft | 467 kts | 118° |
| 2026-05-05 14:12 | 42.58966 | 25.27108 | 33012 ft | 475 kts | 118° |
| 2026-05-05 14:13 | 42.55778 | 25.35002 | 33003 ft | 477 kts | 118° |
| 2026-05-05 14:13 | 42.52585 | 25.42886 | 32999 ft | 477 kts | 118° |
| 2026-05-05 14:14 | 42.49380 | 25.50779 | 33003 ft | 476 kts | 119° |
| 2026-05-05 14:14 | 42.46195 | 25.58600 | 33001 ft | 476 kts | 119° |
| 2026-05-05 14:15 | 42.42993 | 25.66445 | 33003 ft | 475 kts | 119° |
| 2026-05-05 14:15 | 42.39793 | 25.74262 | 32999 ft | 474 kts | 119° |
| 2026-05-05 14:16 | 42.36599 | 25.82044 | 33001 ft | 472 kts | 119° |
| 2026-05-05 14:16 | 42.33413 | 25.89786 | 33000 ft | 471 kts | 119° |
| 2026-05-05 14:17 | 42.30220 | 25.97526 | 33000 ft | 471 kts | 119° |
| 2026-05-05 14:17 | 42.27112 | 26.05044 | 33001 ft | 471 kts | 119° |
| 2026-05-05 14:18 | 42.23909 | 26.12764 | 33003 ft | 472 kts | 119° |
| 2026-05-05 14:18 | 42.20689 | 26.20498 | 33000 ft | 472 kts | 119° |
| 2026-05-05 14:19 | 42.17466 | 26.28221 | 33003 ft | 473 kts | 119° |
| 2026-05-05 14:19 | 42.14255 | 26.35899 | 33000 ft | 474 kts | 119° |
| 2026-05-05 14:20 | 42.11019 | 26.43619 | 33000 ft | 474 kts | 119° |
| 2026-05-05 14:20 | 42.07774 | 26.51339 | 33001 ft | 474 kts | 119° |
| 2026-05-05 14:21 | 42.04524 | 26.59051 | 33001 ft | 473 kts | 120° |
| 2026-05-05 14:21 | 42.01287 | 26.66715 | 33000 ft | 474 kts | 120° |
| 2026-05-05 14:22 | 41.99649 | 26.70586 | 32248 ft | 485 kts | 120° |
| 2026-05-05 14:22 | 41.98003 | 26.74469 | 31443 ft | 486 kts | 120° |
| 2026-05-05 14:22 | 41.96314 | 26.78413 | 30717 ft | 482 kts | 121° |
| 2026-05-05 14:22 | 41.94602 | 26.82232 | 30276 ft | 473 kts | 121° |
| 2026-05-05 14:23 | 41.92910 | 26.85936 | 29804 ft | 465 kts | 121° |
| 2026-05-05 14:23 | 41.91241 | 26.89599 | 29362 ft | 460 kts | 121° |
| 2026-05-05 14:23 | 41.89583 | 26.93259 | 28916 ft | 458 kts | 121° |
| 2026-05-05 14:23 | 41.87926 | 26.96915 | 28467 ft | 459 kts | 121° |
| 2026-05-05 14:24 | 41.86349 | 27.00382 | 28039 ft | 458 kts | 121° |
| 2026-05-05 14:24 | 41.84702 | 27.03999 | 27592 ft | 453 kts | 121° |
| 2026-05-05 14:24 | 41.83068 | 27.07584 | 27136 ft | 446 kts | 121° |
| 2026-05-05 14:24 | 41.81466 | 27.11095 | 26700 ft | 439 kts | 121° |
| 2026-05-05 14:25 | 41.79846 | 27.14534 | 26373 ft | 430 kts | 123° |
| 2026-05-05 14:25 | 41.78174 | 27.17796 | 26046 ft | 421 kts | 125° |
| 2026-05-05 14:25 | 41.76505 | 27.20965 | 25777 ft | 412 kts | 125° |
| 2026-05-05 14:25 | 41.74881 | 27.24064 | 25211 ft | 412 kts | 125° |
| 2026-05-05 14:26 | 41.73234 | 27.27251 | 24669 ft | 410 kts | 124° |
| 2026-05-05 14:26 | 41.71622 | 27.30387 | 24250 ft | 406 kts | 124° |
| 2026-05-05 14:26 | 41.69953 | 27.33303 | 23826 ft | 397 kts | 136° |
| 2026-05-05 14:26 | 41.67698 | 27.35437 | 23453 ft | 391 kts | 155° |
| 2026-05-05 14:27 | 41.65139 | 27.36568 | 23077 ft | 385 kts | 166° |
| 2026-05-05 14:27 | 41.62544 | 27.37395 | 22703 ft | 381 kts | 166° |
| 2026-05-05 14:27 | 41.60013 | 27.38224 | 22326 ft | 378 kts | 166° |
| 2026-05-05 14:27 | 41.57479 | 27.39088 | 21953 ft | 374 kts | 165° |
| 2026-05-05 14:28 | 41.54976 | 27.39957 | 21587 ft | 371 kts | 165° |
| 2026-05-05 14:28 | 41.52479 | 27.40827 | 21201 ft | 369 kts | 165° |
| 2026-05-05 14:28 | 41.50003 | 27.41689 | 20844 ft | 367 kts | 165° |
| 2026-05-05 14:28 | 41.47555 | 27.42574 | 20476 ft | 360 kts | 160° |
| 2026-05-05 14:29 | 41.45419 | 27.44200 | 20173 ft | 353 kts | 137° |
| 2026-05-05 14:29 | 41.43915 | 27.46719 | 19844 ft | 347 kts | 117° |
| 2026-05-05 14:29 | 41.43143 | 27.49717 | 19522 ft | 343 kts | 100° |
| 2026-05-05 14:29 | 41.43010 | 27.52877 | 19140 ft | 339 kts | 83° |
| 2026-05-05 14:30 | 41.43507 | 27.55844 | 18699 ft | 323 kts | 74° |
| 2026-05-05 14:30 | 41.44126 | 27.58711 | 18397 ft | 319 kts | 74° |
| 2026-05-05 14:30 | 41.44711 | 27.61549 | 18057 ft | 316 kts | 75° |
| 2026-05-05 14:30 | 41.45273 | 27.64365 | 17732 ft | 313 kts | 75° |
| 2026-05-05 14:31 | 41.45821 | 27.67157 | 17423 ft | 311 kts | 75° |
| 2026-05-05 14:31 | 41.46361 | 27.69937 | 17094 ft | 310 kts | 75° |
| 2026-05-05 14:31 | 41.46899 | 27.72715 | 16771 ft | 310 kts | 75° |
| 2026-05-05 14:31 | 41.47440 | 27.75509 | 16446 ft | 310 kts | 75° |
| 2026-05-05 14:32 | 41.47976 | 27.78285 | 16130 ft | 308 kts | 76° |
| 2026-05-05 14:32 | 41.48501 | 27.81033 | 15791 ft | 303 kts | 78° |
| 2026-05-05 14:32 | 41.48497 | 27.83806 | 15294 ft | 302 kts | 108° |
| 2026-05-05 14:32 | 41.47417 | 27.86147 | 14981 ft | 299 kts | 137° |
| 2026-05-05 14:33 | 41.45800 | 27.87877 | 14668 ft | 298 kts | 142° |
| 2026-05-05 14:33 | 41.44159 | 27.89610 | 14321 ft | 302 kts | 141° |
| 2026-05-05 14:33 | 41.42514 | 27.91358 | 13976 ft | 302 kts | 141° |
| 2026-05-05 14:33 | 41.40880 | 27.93093 | 13647 ft | 299 kts | 141° |
| 2026-05-05 14:34 | 41.39263 | 27.94806 | 13321 ft | 295 kts | 141° |
| 2026-05-05 14:34 | 41.37672 | 27.96491 | 12995 ft | 292 kts | 141° |
| 2026-05-05 14:34 | 41.36085 | 27.98171 | 12658 ft | 290 kts | 141° |
| 2026-05-05 14:34 | 41.34502 | 27.99846 | 12316 ft | 291 kts | 141° |
| 2026-05-05 14:35 | 41.33000 | 28.01434 | 12003 ft | 288 kts | 141° |
| 2026-05-05 14:35 | 41.31445 | 28.03078 | 11675 ft | 285 kts | 141° |
| 2026-05-05 14:35 | 41.29933 | 28.04676 | 11378 ft | 285 kts | 141° |
| 2026-05-05 14:35 | 41.28362 | 28.06335 | 11075 ft | 285 kts | 141° |
| 2026-05-05 14:36 | 41.26811 | 28.07973 | 10750 ft | 284 kts | 141° |
| 2026-05-05 14:36 | 41.25271 | 28.09597 | 10446 ft | 280 kts | 141° |
| 2026-05-05 14:36 | 41.23755 | 28.11196 | 10125 ft | 277 kts | 141° |
| 2026-05-05 14:36 | 41.22253 | 28.12779 | 9825 ft | 273 kts | 141° |
| 2026-05-05 14:37 | 41.20774 | 28.14337 | 9519 ft | 269 kts | 141° |
| 2026-05-05 14:37 | 41.19338 | 28.15849 | 9230 ft | 265 kts | 141° |
| 2026-05-05 14:37 | 41.17881 | 28.17381 | 8957 ft | 263 kts | 141° |
| 2026-05-05 14:37 | 41.16447 | 28.18888 | 8673 ft | 264 kts | 141° |
| 2026-05-05 14:38 | 41.15029 | 28.20379 | 8393 ft | 264 kts | 141° |
| 2026-05-05 14:38 | 41.13582 | 28.21899 | 8091 ft | 260 kts | 141° |
| 2026-05-05 14:38 | 41.12170 | 28.23381 | 7811 ft | 259 kts | 141° |
| 2026-05-05 14:38 | 41.10776 | 28.24844 | 7534 ft | 260 kts | 141° |
| 2026-05-05 14:39 | 41.09366 | 28.26322 | 7254 ft | 259 kts | 141° |
| 2026-05-05 14:39 | 41.07949 | 28.27807 | 6962 ft | 255 kts | 141° |
| 2026-05-05 14:39 | 41.06578 | 28.29244 | 6693 ft | 255 kts | 141° |
| 2026-05-05 14:39 | 41.05166 | 28.30722 | 6413 ft | 256 kts | 141° |
| 2026-05-05 14:40 | 41.03793 | 28.32160 | 6135 ft | 253 kts | 141° |
| 2026-05-05 14:40 | 41.02424 | 28.33591 | 5871 ft | 251 kts | 142° |
| 2026-05-05 14:40 | 41.01050 | 28.35027 | 5585 ft | 252 kts | 142° |
| 2026-05-05 14:40 | 40.99676 | 28.36461 | 5344 ft | 251 kts | 142° |
| 2026-05-05 14:41 | 40.98358 | 28.37914 | 5032 ft | 242 kts | 131° |
| 2026-05-05 14:41 | 40.97632 | 28.39836 | 4803 ft | 231 kts | 100° |
| 2026-05-05 14:41 | 40.97513 | 28.41927 | 4621 ft | 229 kts | 90° |
| 2026-05-05 14:41 | 40.97518 | 28.44026 | 4417 ft | 228 kts | 89° |
| 2026-05-05 14:42 | 40.97528 | 28.46127 | 4216 ft | 228 kts | 90° |
| 2026-05-05 14:42 | 40.97533 | 28.48224 | 4002 ft | 228 kts | 90° |
| 2026-05-05 14:42 | 40.97463 | 28.50303 | 3799 ft | 225 kts | 99° |
| 2026-05-05 14:42 | 40.97144 | 28.52313 | 3610 ft | 224 kts | 103° |
| 2026-05-05 14:43 | 40.96797 | 28.54312 | 3418 ft | 224 kts | 103° |
| 2026-05-05 14:43 | 40.96458 | 28.56324 | 3214 ft | 224 kts | 102° |
| 2026-05-05 14:43 | 40.96127 | 28.58333 | 3039 ft | 222 kts | 102° |
| 2026-05-05 14:43 | 40.95871 | 28.60292 | 2942 ft | 214 kts | 91° |
| 2026-05-05 14:44 | 40.95888 | 28.62260 | 2937 ft | 214 kts | 88° |
| 2026-05-05 14:44 | 40.95936 | 28.64229 | 2937 ft | 214 kts | 88° |
| 2026-05-05 14:44 | 40.95978 | 28.66184 | 2919 ft | 213 kts | 86° |
| 2026-05-05 14:44 | 40.96366 | 28.67990 | 2909 ft | 208 kts | 54° |
| 2026-05-05 14:45 | 40.97428 | 28.69296 | 2928 ft | 214 kts | 32° |
| 2026-05-05 14:45 | 40.98712 | 28.70282 | 2939 ft | 217 kts | 29° |
| 2026-05-05 14:45 | 41.00084 | 28.71053 | 2913 ft | 212 kts | 8° |
| 2026-05-05 14:45 | 41.01547 | 28.71161 | 2970 ft | 212 kts | 1° |
| 2026-05-05 14:46 | 41.03021 | 28.71184 | 2929 ft | 211 kts | 0° |
| 2026-05-05 14:46 | 41.04456 | 28.71174 | 2919 ft | 207 kts | 359° |
| 2026-05-05 14:46 | 41.05902 | 28.71149 | 2913 ft | 204 kts | 359° |
| 2026-05-05 14:46 | 41.07304 | 28.71121 | 2923 ft | 206 kts | 359° |
| 2026-05-05 14:47 | 41.08772 | 28.71092 | 2934 ft | 210 kts | 359° |
| 2026-05-05 14:47 | 41.10202 | 28.71063 | 2940 ft | 205 kts | 359° |
| 2026-05-05 14:47 | 41.11581 | 28.71036 | 2907 ft | 185 kts | 359° |
| 2026-05-05 14:47 | 41.12799 | 28.71012 | 2890 ft | 167 kts | 359° |
| 2026-05-05 14:48 | 41.13903 | 28.70990 | 2777 ft | 157 kts | 359° |
| 2026-05-05 14:48 | 41.14945 | 28.70970 | 2607 ft | 147 kts | 359° |
| 2026-05-05 14:48 | 41.15975 | 28.70949 | 2402 ft | 148 kts | 359° |
| 2026-05-05 14:48 | 41.17002 | 28.70929 | 2201 ft | 147 kts | 359° |
| 2026-05-05 14:49 | 41.18014 | 28.70909 | 2003 ft | 146 kts | 359° |
| 2026-05-05 14:49 | 41.19012 | 28.70889 | 1814 ft | 146 kts | 359° |
| 2026-05-05 14:49 | 41.20026 | 28.70869 | 1625 ft | 146 kts | 359° |
| 2026-05-05 14:49 | 41.20710 | 28.70856 | 1481 ft | 146 kts | 359° |
| 2026-05-05 14:50 | 41.21713 | 28.70825 | 1302 ft | 145 kts | 359° |
| 2026-05-05 14:50 | 41.22718 | 28.70807 | 1063 ft | 144 kts | 360° |
| 2026-05-05 14:50 | 41.23725 | 28.70795 | 870 ft | 145 kts | 359° |
| 2026-05-05 14:50 | 41.24732 | 28.70779 | 669 ft | 147 kts | 359° |
| 2026-05-05 14:51 | 41.25764 | 28.70759 | 414 ft | 149 kts | 359° |
| 2026-05-05 14:51 | 41.26791 | 28.70732 | 225 ft | 146 kts | 359° |
| 2026-05-05 14:51 | 41.27697 | 28.70711 | 183 ft | 121 kts | 359° |
| 2026-05-05 14:51 | 41.28394 | 28.70702 | 182 ft | 80 kts | 359° |
| 2026-05-05 14:52 | 41.28764 | 28.70695 | 180 ft | 39 kts | 1° |
| 2026-05-05 14:52 | 41.28962 | 28.70747 | 182 ft | 20 kts | 22° |
| 2026-05-05 14:52 | 41.29031 | 28.70792 | 182 ft | 0 kts | 29° |
| 2026-05-05 14:52 | 41.29032 | 28.70793 | 182 ft | 0 kts | 29° |
| 2026-05-05 14:53 | 41.29039 | 28.70798 | 182 ft | 4 kts | 29° |
| 2026-05-05 14:53 | 41.29087 | 28.70834 | 183 ft | 12 kts | 29° |
| 2026-05-05 14:53 | 41.29184 | 28.70906 | 192 ft | 20 kts | 29° |
| 2026-05-05 14:53 | 41.29227 | 28.71058 | 182 ft | 18 kts | 92° |
| 2026-05-05 14:54 | 41.29151 | 28.71168 | 182 ft | 22 kts | 176° |
| 2026-05-05 14:54 | 41.28974 | 28.71170 | 182 ft | 29 kts | 179° |
| 2026-05-05 14:54 | 41.28756 | 28.71175 | 182 ft | 33 kts | 179° |
| 2026-05-05 14:54 | 41.28546 | 28.71179 | 182 ft | 25 kts | 179° |
| 2026-05-05 14:55 | 41.28379 | 28.71182 | 182 ft | 23 kts | 180° |
| 2026-05-05 14:55 | 41.28217 | 28.71184 | 182 ft | 23 kts | 179° |
| 2026-05-05 14:55 | 41.28056 | 28.71188 | 182 ft | 23 kts | 179° |
| 2026-05-05 14:55 | 41.27915 | 28.71191 | 182 ft | 16 kts | 179° |
| 2026-05-05 14:56 | 41.27825 | 28.71239 | 182 ft | 16 kts | 100° |
| 2026-05-05 14:56 | 41.27822 | 28.71327 | 182 ft | 7 kts | 91° |
| 2026-05-05 14:56 | 41.27822 | 28.71364 | 182 ft | 0 kts | 89° |
| 2026-05-05 14:57 | 41.27822 | 28.71370 | 182 ft | 1 kts | 89° |
| 2026-05-05 14:57 | 41.27822 | 28.71375 | 182 ft | 0 kts | 89° |